createdAt,value
2023-01-19T05:34:04.052Z,34.03
2023-01-19T05:39:05.774Z,33.80
2023-01-19T05:44:07.525Z,33.73
2023-01-19T05:49:09.409Z,33.57
2023-01-19T05:54:15.401Z,34.33
2023-01-19T05:59:23.954Z,32.90
2023-01-19T06:04:26.517Z,34.37
2023-01-19T06:09:28.407Z,32.67
2023-01-19T06:14:30.044Z,32.27
2023-01-19T06:19:32.350Z,32.93
2023-01-19T06:24:33.996Z,33.67
2023-01-19T06:29:35.618Z,32.53
2023-01-19T06:34:37.320Z,31.93
2023-01-19T06:39:41.268Z,31.70
2023-01-19T06:44:47.541Z,33.27
2023-01-19T06:49:49.568Z,33.77
2023-01-19T06:54:51.139Z,34.07
2023-01-19T06:59:53.082Z,33.43
2023-01-19T07:04:55.358Z,40.40
2023-01-19T07:09:56.960Z,34.20
2023-01-19T07:14:58.730Z,32.73
2023-01-19T07:20:00.372Z,33.90
2023-01-19T07:25:02.075Z,33.47
2023-01-19T07:30:04.645Z,33.77
2023-01-19T07:35:06.687Z,32.47
2023-01-19T07:40:09.167Z,34.23
2023-01-19T07:45:11.069Z,32.77
2023-01-19T07:50:13.985Z,34.80
2023-01-19T07:55:15.873Z,32.10
2023-01-19T08:00:24.734Z,32.67
2023-01-19T08:05:27.615Z,33.37
2023-01-19T08:10:29.497Z,32.53
2023-01-19T08:15:31.266Z,31.53
2023-01-19T08:20:32.941Z,31.20
2023-01-19T08:25:37.809Z,32.43
2023-01-19T08:30:40.600Z,31.33
2023-01-19T08:35:47.259Z,32.37
2023-01-19T08:40:49.042Z,31.17
2023-01-19T08:45:52.193Z,31.27
2023-01-19T08:50:54.017Z,34.13
2023-01-19T08:55:57.772Z,30.87
2023-01-19T09:01:01.992Z,32.67
2023-01-19T09:06:08.869Z,31.60
2023-01-19T09:11:12.423Z,32.63
2023-01-19T09:16:16.046Z,33.33
2023-01-19T09:21:18.743Z,33.30
2023-01-19T09:26:22.469Z,33.40
2023-01-19T09:31:24.337Z,33.07
2023-01-19T09:36:26.160Z,33.27
2023-01-19T09:41:27.936Z,33.13
2023-01-19T09:46:39.900Z,33.53
2023-01-19T09:51:45.363Z,34.70
2023-01-19T09:56:52.141Z,34.27
2023-01-19T10:02:14.574Z,34.07
2023-01-19T10:07:29.657Z,37.60
2023-01-19T10:12:57.547Z,37.53
2023-01-19T10:18:21.270Z,38.40
2023-01-19T10:23:34.975Z,37.93
2023-01-19T10:28:39.040Z,39.77
2023-01-19T10:33:41.105Z,38.80
2023-01-19T10:38:43.212Z,37.13
2023-01-19T10:43:47.181Z,36.97
2023-01-19T10:48:52.278Z,36.80
2023-01-19T10:54:02.828Z,38.00
2023-01-19T10:59:07.037Z,37.70
2023-01-19T11:04:22.276Z,35.50
2023-01-19T11:09:24.066Z,35.13
2023-01-19T11:14:30.849Z,36.27
2023-01-19T11:19:33.908Z,36.87
2023-01-19T11:24:38.586Z,36.77
2023-01-19T11:29:40.412Z,35.67
2023-01-19T11:34:42.236Z,35.30
2023-01-19T11:39:50.587Z,34.20
2023-01-19T11:44:57.920Z,34.50
2023-01-19T11:50:29.917Z,35.50
2023-01-19T11:55:48.747Z,35.60
2023-01-19T12:00:57.044Z,35.37
2023-01-19T12:06:06.969Z,34.50
2023-01-19T12:11:12.715Z,34.13
2023-01-19T12:16:20.851Z,35.20
2023-01-19T12:21:22.687Z,34.90
2023-01-19T12:26:37.430Z,35.50
2023-01-19T12:31:40.810Z,34.43
2023-01-19T12:36:44.055Z,33.87
2023-01-19T12:41:48.804Z,34.07
2023-01-19T12:46:57.390Z,35.70
2023-01-19T12:52:21.047Z,34.83
2023-01-19T12:57:50.444Z,34.33
2023-01-19T13:02:56.312Z,32.43
2023-01-19T13:08:07.228Z,31.27
2023-01-19T13:13:29.518Z,32.10
2023-01-19T13:18:38.415Z,31.63
2023-01-19T13:23:52.315Z,30.63
2023-01-19T13:28:57.491Z,29.70
2023-01-19T13:34:01.564Z,29.53
2023-01-19T13:39:28.953Z,29.63
2023-01-19T13:44:42.339Z,30.50
2023-01-19T13:49:46.698Z,30.17
2023-01-19T13:54:55.671Z,30.43
2023-01-19T14:00:09.867Z,28.50
2023-01-19T14:05:20.060Z,30.40
2023-01-19T14:10:21.697Z,31.10
2023-01-19T14:15:23.517Z,29.77
2023-01-19T14:20:30.434Z,29.40
2023-01-19T14:25:34.668Z,29.37
2023-01-19T14:30:36.859Z,28.03
2023-01-19T14:35:38.651Z,28.07
2023-01-19T14:40:40.800Z,27.07
2023-01-19T14:45:47.626Z,27.77
2023-01-19T14:51:02.875Z,28.47
2023-01-19T14:56:06.904Z,29.27
2023-01-19T15:01:09.241Z,28.67
2023-01-19T15:06:16.682Z,29.73
2023-01-19T15:11:22.777Z,29.47
2023-01-19T15:16:27.565Z,28.07
2023-01-19T15:21:29.511Z,28.67
2023-01-19T15:26:31.183Z,29.00
2023-01-19T15:31:32.853Z,26.70
2023-01-19T15:36:34.602Z,26.27
2023-01-19T15:41:38.396Z,29.20
2023-01-19T15:46:41.099Z,27.73
2023-01-19T15:51:42.700Z,26.60
2023-01-19T15:56:59.961Z,30.07
2023-01-19T16:02:01.924Z,30.03
2023-01-19T16:07:03.946Z,27.10
2023-01-19T16:12:05.859Z,27.07
2023-01-19T16:17:07.554Z,24.93
2023-01-19T16:22:11.310Z,25.27
2023-01-19T16:27:12.926Z,25.77
2023-01-19T16:32:15.270Z,26.77
2023-01-19T16:37:18.386Z,25.63
2023-01-19T16:42:20.348Z,26.03
2023-01-19T16:47:22.094Z,29.20
2023-01-19T16:52:23.766Z,45.73
2023-01-19T16:57:25.526Z,32.90
2023-01-19T17:02:27.268Z,32.00
2023-01-19T17:07:28.930Z,31.80
2023-01-19T17:12:32.229Z,32.43
2023-01-19T17:17:36.271Z,31.03
2023-01-19T17:22:37.888Z,31.80
2023-01-19T17:27:39.725Z,30.13
2023-01-19T17:32:42.688Z,34.00
2023-01-19T17:37:44.478Z,35.73
2023-01-19T17:42:46.184Z,36.93
2023-01-19T17:47:50.955Z,36.00
2023-01-19T17:52:52.918Z,36.47
2023-01-19T17:57:54.544Z,35.67
2023-01-19T18:02:56.167Z,34.97
2023-01-19T18:08:00.173Z,33.70
2023-01-19T18:13:01.873Z,45.53
2023-01-19T18:18:04.529Z,44.73
2023-01-19T18:23:09.397Z,35.27
2023-01-19T18:28:10.980Z,33.83
2023-01-19T18:33:12.592Z,33.77
2023-01-19T18:38:14.837Z,34.27
2023-01-19T18:43:16.438Z,35.47
2023-01-19T18:48:18.192Z,34.03
2023-01-19T18:53:20.573Z,33.60
2023-01-19T18:58:22.978Z,32.50
2023-01-19T19:03:24.968Z,32.33
2023-01-19T19:08:26.621Z,31.37
2023-01-19T19:13:28.366Z,33.67
2023-01-19T19:18:30.949Z,32.23
2023-01-19T19:23:32.661Z,34.03
2023-01-19T19:28:37.257Z,33.23
2023-01-19T19:33:39.940Z,37.03
2023-01-19T19:38:42.942Z,38.43
2023-01-19T19:43:45.003Z,41.07
2023-01-19T19:48:48.163Z,44.10
2023-01-19T19:53:51.838Z,47.03
2023-01-19T19:58:56.246Z,38.87
2023-01-19T20:04:00.293Z,36.67
2023-01-19T20:09:02.070Z,36.57
2023-01-19T20:14:08.428Z,34.20
2023-01-19T20:19:10.549Z,33.27
2023-01-19T20:24:19.187Z,34.50
2023-01-19T20:29:21.421Z,32.97
2023-01-19T20:34:28.162Z,33.23
2023-01-19T20:39:33.359Z,33.33
2023-01-19T20:44:35.146Z,33.30
2023-01-19T20:49:36.910Z,33.07
2023-01-19T20:54:39.890Z,35.37
2023-01-19T20:59:41.625Z,36.60
